Date,TemperatureHighF,TemperatureAvgF,TemperatureLowF,DewpointHighF,DewpointAvgF,DewpointLowF,HumidityHigh,HumidityAvg,HumidityLow,PressureMaxIn,PressureMinIn,WindSpeedMaxMPH,WindSpeedAvgMPH,GustSpeedMaxMPH,PrecipitationSumIn
2013-1-1,43.0,31.5,22.0,21.0,8.7,1.0,91,43,19,0.00,40.00,13,8,31,0.01
2013-1-2,59.0,42.4,34.0,22.0,9.9,-1.0,49,27,16,0.00,40.00,16,5,33,0.15
2013-1-3,60.0,41.7,35.0,22.0,12.6,-2.0,51,32,12,0.00,40.00,6,3,11,0.11
2013-1-4,62.0,41.8,36.0,27.0,19.4,6.0,68,43,15,0.00,40.00,4,2,11,0.09
2013-1-5,56.0,40.5,31.0,31.0,25.0,13.0,73,55,36,0.00,40.00,8,4,20,0.01
2013-1-6,35.0,30.2,25.0,30.0,25.5,16.0,96,83,54,0.00,40.00,11,4,16,0.01
2013-1-7,57.0,40.3,32.0,31.0,23.9,14.0,65,52,32,0.00,40.00,13,5,25,0.14
2013-1-8,75.0,49.3,41.0,34.0,27.2,11.0,59,44,20,0.00,40.00,7,4,17,0.02
2013-1-9,53.0,41.8,23.0,32.0,25.3,17.0,100,57,29,0.00,40.00,19,6,31,0.00
2013-1-10,32.0,21.4,16.0,24.0,16.2,12.0,94,81,55,0.00,40.00,11,6,34,0.00
2013-1-11,32.0,20.9,15.0,18.0,13.8,6.0,92,75,39,0.00,40.00,8,5,15,0.00
2013-1-12,42.0,21.0,13.0,13.0,4.6,-8.0,76,50,25,0.00,40.00,12,6,16,0.00
2013-1-13,40.0,22.3,14.0,10.0,-5.4,-16.0,45,30,19,0.00,40.00,11,6,17,0.00
2013-1-14,45.0,29.4,15.0,20.0,1.1,-14.0,52,31,15,0.00,40.00,11,5,18,0.01
2013-1-15,62.0,45.2,36.0,20.0,16.6,14.0,50,33,17,0.00,40.00,18,7,40,0.21
2013-1-17,72.0,51.0,43.0,22.0,-0.4,-21.0,27,14,5,0.00,40.00,9,4,26,0.00
2013-1-18,70.0,50.8,43.0,21.0,0.9,-20.0,32,14,6,0.00,40.00,6,3,14,0.00
2013-1-19,71.0,50.0,41.0,20.0,4.6,-14.0,35,17,6,0.00,40.00,5,4,13,0.00
2013-1-20,63.0,49.1,40.0,6.0,-3.8,-11.0,19,11,7,0.00,40.00,13,6,28,0.00
2013-1-21,68.0,54.1,45.0,17.0,2.9,-16.0,24,13,6,0.00,40.00,13,4,24,0.00
2013-1-22,69.0,51.5,44.0,23.0,11.4,-3.0,31,21,13,0.00,40.00,5,3,14,0.00
2013-1-23,60.0,46.9,39.0,33.0,12.8,-4.0,78,30,12,0.00,40.00,12,5,20,0.00
2013-1-24,49.0,42.1,39.0,43.0,38.1,33.0,100,86,71,0.00,40.00,4,2,16,0.24
2013-1-25,51.0,44.1,41.0,46.0,29.4,-99.9,100,82,71,0.00,40.00,4,2,10,0.46
2013-1-26,50.0,39.6,30.0,41.0,10.0,-99.9,100,68,52,0.00,40.00,9,4,21,0.15
2013-1-27,37.0,27.4,22.0,29.0,13.8,-99.9,97,76,58,0.00,40.00,11,6,21,0.02
2013-1-28,42.0,28.7,20.0,25.0,15.0,8.0,87,59,31,0.00,40.00,11,5,18,0.02
2013-1-29,53.0,39.4,28.0,28.0,23.6,18.0,74,54,37,0.00,40.00,15,6,29,0.06
2013-1-30,63.0,47.0,40.0,36.0,25.9,15.0,70,46,16,0.00,40.00,8,4,19,0.04
2013-1-31,65.0,50.0,41.0,30.0,21.9,10.0,60,36,18,0.00,40.00,6,3,15,0.00
2013-2-1,66.0,48.2,40.0,30.0,15.7,1.0,58,30,8,0.00,40.00,6,3,11,0.00
2013-2-2,57.0,46.7,41.0,28.0,15.5,2.0,55,29,14,0.00,40.00,4,2,14,0.00
2013-2-3,59.0,47.0,41.0,29.0,16.6,3.0,53,31,18,0.00,40.00,9,4,20,0.00
2013-2-4,63.0,47.8,41.0,31.0,20.9,5.0,59,37,18,0.00,40.00,9,3,23,0.00
2013-2-5,56.0,42.7,31.0,33.0,23.1,13.0,94,50,23,0.00,40.00,7,4,18,0.00
2013-2-6,55.0,38.6,30.0,28.0,12.4,-7.0,79,40,9,0.00,40.00,7,4,14,0.00
2013-2-7,35.0,28.7,23.0,30.0,21.7,8.0,98,77,35,0.00,40.00,15,4,27,0.00
2013-2-8,39.0,26.4,19.0,24.0,15.1,9.0,91,64,37,0.00,40.00,9,5,16,0.07
2013-2-9,46.0,30.6,23.0,25.0,14.8,9.0,86,54,23,0.00,40.00,9,5,20,0.05
2013-2-10,44.0,34.3,29.0,16.0,10.8,4.0,49,38,26,0.00,40.00,15,7,30,0.00
2013-2-11,51.0,35.2,26.0,22.0,8.9,3.0,62,35,17,0.00,40.00,12,6,25,0.00
2013-2-12,49.0,40.3,34.0,27.0,15.4,5.0,67,37,28,0.00,40.00,10,4,16,0.00
2013-2-13,56.0,45.0,37.0,27.0,18.4,13.0,42,35,24,0.00,40.00,11,6,21,0.00
2013-2-14,57.0,46.0,39.0,22.0,17.5,12.0,43,33,19,0.00,40.00,17,9,30,0.00
2013-2-15,66.0,51.3,42.0,25.0,16.0,3.0,41,26,14,0.00,40.00,10,5,21,0.00
2013-2-16,60.0,47.4,39.0,27.0,15.1,-5.0,56,30,12,0.00,40.00,7,4,16,0.00
2013-2-17,57.0,43.2,36.0,27.0,17.3,6.0,65,37,20,0.00,40.00,8,3,15,0.00
2013-2-18,52.0,40.7,32.0,32.0,23.6,18.0,98,54,26,0.00,40.00,8,5,18,0.00
2013-2-19,35.0,26.0,18.0,29.0,21.9,15.0,98,85,60,0.00,40.00,12,6,53,0.00
2013-2-20,44.0,30.3,19.0,29.0,19.0,13.0,89,65,28,0.00,40.00,12,6,25,0.05
2013-2-21,48.0,32.7,25.0,26.0,19.3,9.0,89,63,20,0.00,40.00,12,6,25,0.10
2013-2-22,53.0,37.7,29.0,31.0,20.6,10.0,79,52,28,0.00,40.00,8,4,19,0.15
2013-2-23,38.0,31.9,26.0,30.0,22.5,5.0,98,71,38,0.00,40.00,12,6,30,0.06
2013-2-24,55.0,37.9,26.0,24.0,8.3,-5.0,59,32,13,0.00,40.00,7,5,19,0.01
2013-2-25,48.0,39.0,32.0,25.0,16.6,7.0,71,42,28,0.00,40.00,10,5,20,0.00
2013-2-26,53.0,39.7,31.0,12.0,-0.4,-11.0,43,19,9,0.00,40.00,10,5,20,0.00
2013-2-27,56.0,44.1,34.0,20.0,9.3,-5.0,50,26,14,0.00,40.00,7,3,17,0.00
2013-2-28,58.0,44.7,35.0,33.0,24.1,11.0,64,45,31,0.00,40.00,9,3,19,0.00
2013-3-1,68.0,52.7,43.0,35.0,30.5,23.0,62,44,24,0.00,40.00,11,4,17,0.00
2013-3-2,65.0,53.0,44.0,31.0,24.0,19.0,59,34,21,0.00,40.00,8,4,17,0.00
2013-3-3,44.0,37.5,34.0,38.0,35.1,31.0,99,91,59,0.00,40.00,5,2,15,0.52
2013-3-4,58.0,42.3,33.0,41.0,15.4,-99.9,98,61,43,0.00,40.00,5,3,17,0.01
2013-3-5,53.0,41.6,34.0,37.0,32.8,29.0,96,72,49,0.00,40.00,9,6,24,0.00
2013-3-6,39.0,30.4,26.0,31.0,26.1,17.0,100,85,61,0.00,40.00,13,7,38,0.00
2013-3-7,42.0,31.8,28.0,30.0,25.1,17.0,97,77,54,0.00,40.00,6,3,15,0.01
2013-3-8,30.0,29.4,29.0,23.0,21.1,20.0,76,72,70,0.00,40.00,3,2,6,0.01